International Virtual Aviation Organisation

Russian Federation and Kazakhstan MCD

 

Карточка аэропорта UOOO

Внимание!
Информация на этой странице в стадии наполнения.
Если вы не увидели какой-то информации, или заметили неточность - пожалуйста сообщите нам!
Спасибо!
Команда RU-STAFF
Название аэропортаАлыкель
Название аэропорта (англ.)Alykel
Превышение574 ft. (175 m.)
Координаты69°19.02', 87°19.02'
Высота перехода1200m
Эшелон переходаQFE>744:FL60;744>QFE>717:FL70;717>QFE:FL80
Коды ответчика5401-5427
Зона ОрВДКрасноярск РПИ (UNKL)
Данные METARUOOO 031900Z 17002MPS 0200 0150NE R19/0650N FZFG VV002 M17/M19 Q1017 R19/39//37 NOSIG RMK QBB070 QFE746/0995
Проноз погоды (TAF)UOOO 031840Z 0318/0418 26003MPS 0500 FZFG VV002 TEMPO 0319/0403 VRB01MPS 1100 BR SCT004 FM040300 25003G08MPS 3100 BR DRSN SCT016 TEMPO 0403/0409 1500 BR DRSN SCT011 FM040900 20009G15MPS 2100 -SN BLSN BKN011 TEMPO 0409/0418 0500 SN BLSN
NOTAMshow/hide NOTAM
AWOS   TABLE

Информация о ВПП

ВПП Длина ВПП (м.) Покрытие Курс ВПП Частота ILS
013430Бетон13109.5
193430Бетон193110.3

Диспетчерские позиции

Позывной Наименование органа УВД Частота
UOOO_GNDНорильск - Руление121.700
UOOO_TWRНорильск - Старт118.300
UOOO_APPНорильск - Круг120.400



Спутниковое изображение